Time;durP1;ratioP1;P1;durP2;ratioP2;P2;SDS_P1;SDS_P2;PMS_P1;PMS_P2;Temp;Humidity;BMP_temperature;BMP_pressure;BME280_temperature;BME280_humidity;BME280_pressure;Samples;Min_cycle;Max_cycle;Signal;HPM_P1;HPM_P2
2023/06/16 00:01:41;;;;;;;;;;;20.60;80.80;;;;;;7331093;19;109028;-58
2023/06/16 00:04:09;;;;;;;;;;;20.50;79.90;;;;;;7333188;19;108349;-59
2023/06/16 00:06:47;;;;;;;;;;;20.50;80.40;;;;;;7327685;19;109534;-58
2023/06/16 00:09:14;;;;;;;;;;;20.40;80.80;;;;;;7333153;19;108756;-59
2023/06/16 00:11:41;;;;;;;;;;;20.30;80.10;;;;;;7332971;19;109566;-59
2023/06/16 00:14:08;;;;;;;;;;;20.30;80.30;;;;;;7334680;19;109540;-58
2023/06/16 00:16:36;;;;;;;;;;;20.30;80.80;;;;;;7333345;19;108934;-59
2023/06/16 00:19:07;;;;;;;;;;;20.20;80.90;;;;;;7334145;19;120262;-60
2023/06/16 00:21:38;;;;;;;;;;;20.20;81.60;;;;;;7335192;19;109379;-58
2023/06/16 00:24:06;;;;;;;;;;;20.10;81.80;;;;;;7329792;19;108954;-60
2023/06/16 00:26:33;;;;;;;;;;;20.10;82.50;;;;;;7332200;19;109882;-59
2023/06/16 00:29:01;;;;;;;;;;;20.10;81.40;;;;;;7329675;19;108718;-58
2023/06/16 00:31:31;;;;;;;;;;;20.00;81.80;;;;;;7333849;19;109532;-58
2023/06/16 00:33:59;;;;;;;;;;;20.00;82.30;;;;;;7333072;19;110703;-61
2023/06/16 00:36:26;;;;;;;;;;;20.00;81.70;;;;;;7330896;19;109025;-59
2023/06/16 00:38:53;;;;;;;;;;;20.00;82.30;;;;;;7330184;19;109056;-58
2023/06/16 00:41:20;;;;;;;;;;;19.90;82.50;;;;;;7334591;19;110549;-61
2023/06/16 00:43:47;;;;;;;;;;;19.90;82.20;;;;;;7330466;19;109827;-59
2023/06/16 00:46:24;;;;;;;;;;;19.90;82.10;;;;;;7330296;19;108925;-59
2023/06/16 00:48:52;;;;;;;;;;;19.90;82.70;;;;;;7330634;19;110919;-59
2023/06/16 00:51:19;;;;;;;;;;;19.80;83.20;;;;;;7332411;19;108709;-59
2023/06/16 00:53:47;;;;;;;;;;;19.80;83.00;;;;;;7325303;19;110299;-59
2023/06/16 00:56:16;;;;;;;;;;;19.80;82.30;;;;;;7333787;19;108629;-60
2023/06/16 00:58:43;;;;;;;;;;;19.70;82.50;;;;;;7331687;19;109655;-62
2023/06/16 01:01:12;;;;;;;;;;;19.70;82.70;;;;;;7332020;19;109242;-59
2023/06/16 01:03:40;;;;;;;;;;;19.70;81.50;;;;;;7327481;19;110009;-60
2023/06/16 01:06:15;;;;;;;;;;;19.70;82.40;;;;;;7329803;19;109141;-59
2023/06/16 01:08:54;;;;;;;;;;;19.70;83.30;;;;;;7322708;19;108760;-59
2023/06/16 01:11:21;;;;;;;;;;;19.60;82.10;;;;;;7328134;19;109215;-59
2023/06/16 01:13:59;;;;;;;;;;;19.60;82.10;;;;;;7324512;19;110743;-65
2023/06/16 01:16:30;;;;;;;;;;;19.50;82.40;;;;;;7328836;19;108952;-59
2023/06/16 01:19:02;;;;;;;;;;;19.50;82.50;;;;;;7328075;19;108694;-59
2023/06/16 01:21:43;;;;;;;;;;;19.40;82.70;;;;;;7327804;19;110847;-59
2023/06/16 01:24:14;;;;;;;;;;;19.40;82.80;;;;;;7335492;19;111236;-59
2023/06/16 01:26:49;;;;;;;;;;;19.40;83.00;;;;;;7327749;19;110152;-59
2023/06/16 01:29:17;;;;;;;;;;;19.30;85.00;;;;;;7320467;19;108933;-59
2023/06/16 01:31:45;;;;;;;;;;;19.20;86.00;;;;;;7334131;19;108930;-63
2023/06/16 01:34:13;;;;;;;;;;;19.10;86.00;;;;;;7336381;19;109752;-60
2023/06/16 01:36:41;;;;;;;;;;;19.10;85.80;;;;;;7329554;19;109845;-59
2023/06/16 01:39:09;;;;;;;;;;;18.90;85.40;;;;;;7337697;19;109207;-59
2023/06/16 01:41:37;;;;;;;;;;;18.90;86.30;;;;;;7340666;19;109191;-58
2023/06/16 01:44:04;;;;;;;;;;;18.90;85.30;;;;;;7337765;19;110383;-58
2023/06/16 01:46:32;;;;;;;;;;;18.90;85.20;;;;;;7354261;19;110590;-59
2023/06/16 01:49:00;;;;;;;;;;;18.90;85.60;;;;;;7337331;19;108756;-64
2023/06/16 01:51:27;;;;;;;;;;;18.80;85.70;;;;;;7336561;19;109154;-64
2023/06/16 01:53:54;;;;;;;;;;;18.90;86.30;;;;;;7336097;19;109523;-66
2023/06/16 01:56:21;;;;;;;;;;;18.80;86.60;;;;;;7332604;19;109291;-62
2023/06/16 01:58:49;;;;;;;;;;;18.70;85.60;;;;;;7338709;19;108611;-63
2023/06/16 02:01:25;;;;;;;;;;;18.70;84.80;;;;;;7330366;19;109148;-62
2023/06/16 02:04:03;;;;;;;;;;;18.80;85.00;;;;;;7334910;19;110019;-67
2023/06/16 02:06:33;;;;;;;;;;;18.70;84.80;;;;;;7337997;19;110914;-66
2023/06/16 02:09:02;;;;;;;;;;;18.70;85.50;;;;;;7340834;19;110900;-62
2023/06/16 02:11:29;;;;;;;;;;;18.70;85.30;;;;;;7338051;19;108297;-60
2023/06/16 02:13:57;;;;;;;;;;;18.70;85.20;;;;;;7331942;19;110476;-59
2023/06/16 02:16:25;;;;;;;;;;;18.70;85.10;;;;;;7335384;19;110116;-59
2023/06/16 02:18:55;;;;;;;;;;;18.70;84.90;;;;;;7337618;19;112572;-59
2023/06/16 02:23:58;;;;;;;;;;;18.50;88.00;;;;;;7339373;19;110050;-85
2023/06/16 02:26:25;;;;;;;;;;;18.40;88.30;;;;;;7341706;19;109438;-85
2023/06/16 02:28:52;;;;;;;;;;;18.20;87.60;;;;;;7345366;19;109826;-85
2023/06/16 02:31:19;;;;;;;;;;;18.20;86.50;;;;;;7340129;19;110452;-85
2023/06/16 02:33:48;;;;;;;;;;;18.30;86.50;;;;;;7338701;19;111005;-85
2023/06/16 02:36:16;;;;;;;;;;;18.30;86.50;;;;;;7345634;19;109817;-84
2023/06/16 02:38:43;;;;;;;;;;;18.40;86.40;;;;;;7343395;19;109844;-85
2023/06/16 02:41:11;;;;;;;;;;;18.40;87.50;;;;;;7341217;19;109626;-86
2023/06/16 02:43:38;;;;;;;;;;;18.20;88.30;;;;;;7339016;19;110583;-84
2023/06/16 02:46:06;;;;;;;;;;;18.10;89.10;;;;;;7335082;19;109393;-84
2023/06/16 02:48:34;;;;;;;;;;;18.10;88.50;;;;;;7337553;19;110003;-84
2023/06/16 02:51:01;;;;;;;;;;;18.00;87.90;;;;;;7333152;19;109735;-85
2023/06/16 03:04:45;;;;;;;;;;;18.10;89.10;;;;;;7331362;19;109235;-66
2023/06/16 03:07:14;;;;;;;;;;;18.00;89.90;;;;;;7331969;19;109618;-66
2023/06/16 03:09:42;;;;;;;;;;;17.90;88.90;;;;;;7334872;19;109578;-76
2023/06/16 03:12:11;;;;;;;;;;;17.90;89.70;;;;;;7332454;19;109006;-66
2023/06/16 03:14:38;;;;;;;;;;;17.80;90.30;;;;;;7331403;19;109769;-67
2023/06/16 03:17:06;;;;;;;;;;;17.70;90.80;;;;;;7340025;19;112866;-66
2023/06/16 03:19:34;;;;;;;;;;;17.70;90.60;;;;;;7331736;19;108844;-66
2023/06/16 03:22:01;;;;;;;;;;;17.60;90.80;;;;;;7332160;19;109824;-66
2023/06/16 03:24:29;;;;;;;;;;;17.50;91.70;;;;;;7333492;19;109873;-66
2023/06/16 03:26:56;;;;;;;;;;;17.30;92.40;;;;;;7331611;19;110642;-66
2023/06/16 03:29:23;;;;;;;;;;;17.20;92.90;;;;;;7334803;19;109773;-66
2023/06/16 03:31:50;;;;;;;;;;;17.00;93.00;;;;;;7331017;19;108717;-66
2023/06/16 03:34:17;;;;;;;;;;;16.90;93.20;;;;;;7337215;19;109749;-66
2023/06/16 03:36:50;;;;;;;;;;;16.90;92.80;;;;;;7336372;19;109674;-66
2023/06/16 03:39:17;;;;;;;;;;;17.00;92.50;;;;;;7329077;19;109355;-66
2023/06/16 03:41:45;;;;;;;;;;;17.00;92.70;;;;;;7333067;19;113058;-66
2023/06/16 03:44:12;;;;;;;;;;;17.10;92.30;;;;;;7327214;19;110761;-66
2023/06/16 03:46:39;;;;;;;;;;;17.10;92.50;;;;;;7333771;19;109139;-66
2023/06/16 03:49:07;;;;;;;;;;;17.10;92.30;;;;;;7329081;19;110711;-66
2023/06/16 03:51:39;;;;;;;;;;;17.10;92.40;;;;;;7334538;19;108947;-66
2023/06/16 03:54:06;;;;;;;;;;;17.10;92.40;;;;;;7330949;19;108326;-66
2023/06/16 03:56:33;;;;;;;;;;;17.10;92.20;;;;;;7334575;19;110261;-66
2023/06/16 03:59:01;;;;;;;;;;;17.10;92.40;;;;;;7338791;19;108812;-66
2023/06/16 04:01:30;;;;;;;;;;;17.10;92.20;;;;;;7331710;19;110458;-66
2023/06/16 04:03:57;;;;;;;;;;;17.10;92.40;;;;;;7331727;19;108622;-65
2023/06/16 04:06:25;;;;;;;;;;;17.10;92.50;;;;;;7325786;19;110125;-66
2023/06/16 04:08:52;;;;;;;;;;;17.10;93.10;;;;;;7328101;19;109696;-66
2023/06/16 04:11:19;;;;;;;;;;;17.00;93.50;;;;;;7329759;19;113473;-66
2023/06/16 04:13:47;;;;;;;;;;;17.00;93.30;;;;;;7331645;19;109366;-66
2023/06/16 04:16:14;;;;;;;;;;;17.00;93.30;;;;;;7331417;19;109854;-66
2023/06/16 04:18:43;;;;;;;;;;;17.00;93.00;;;;;;7330080;19;110208;-66
2023/06/16 04:21:10;;;;;;;;;;;17.00;93.00;;;;;;7337867;19;108781;-67
2023/06/16 04:23:37;;;;;;;;;;;17.10;93.50;;;;;;7330381;19;108376;-66
2023/06/16 04:26:06;;;;;;;;;;;17.00;93.60;;;;;;7328561;19;109867;-66
2023/06/16 04:28:33;;;;;;;;;;;17.00;93.30;;;;;;7330209;19;109104;-66
2023/06/16 04:31:00;;;;;;;;;;;17.10;93.60;;;;;;7332087;19;108762;-66
2023/06/16 04:33:27;;;;;;;;;;;17.10;93.40;;;;;;7331543;19;108572;-65
2023/06/16 04:35:55;;;;;;;;;;;17.20;93.40;;;;;;7326362;19;110617;-66
2023/06/16 04:38:23;;;;;;;;;;;17.30;93.30;;;;;;7333216;19;109379;-66
2023/06/16 04:40:50;;;;;;;;;;;17.30;93.60;;;;;;7331465;19;109004;-66
2023/06/16 04:43:17;;;;;;;;;;;17.40;93.60;;;;;;7334604;19;109527;-66
2023/06/16 04:45:44;;;;;;;;;;;17.40;93.70;;;;;;7331228;19;109427;-66
2023/06/16 04:48:12;;;;;;;;;;;17.40;93.80;;;;;;7330879;19;109675;-66
2023/06/16 04:50:39;;;;;;;;;;;17.50;93.50;;;;;;7331213;19;110677;-66
2023/06/16 04:53:06;;;;;;;;;;;17.60;93.10;;;;;;7330449;19;110350;-66
2023/06/16 04:55:33;;;;;;;;;;;17.70;93.00;;;;;;7330887;19;110568;-66
2023/06/16 04:58:00;;;;;;;;;;;17.80;93.40;;;;;;7327800;19;109546;-66
2023/06/16 05:00:29;;;;;;;;;;;17.80;93.30;;;;;;7327356;19;110827;-66
2023/06/16 05:02:57;;;;;;;;;;;17.90;93.20;;;;;;7327289;19;109129;-65
2023/06/16 05:05:24;;;;;;;;;;;17.90;93.10;;;;;;7332388;19;109153;-66
2023/06/16 05:07:51;;;;;;;;;;;18.00;93.40;;;;;;7330377;19;111420;-66
2023/06/16 05:10:18;;;;;;;;;;;18.10;93.50;;;;;;7329747;19;108685;-66
2023/06/16 05:12:45;;;;;;;;;;;18.10;93.10;;;;;;7333512;19;109575;-66
2023/06/16 05:15:12;;;;;;;;;;;18.20;92.90;;;;;;7326309;19;111421;-67
2023/06/16 05:17:39;;;;;;;;;;;18.30;92.90;;;;;;7330103;19;109016;-66
2023/06/16 05:20:08;;;;;;;;;;;18.30;92.60;;;;;;7333149;19;110974;-66
2023/06/16 05:22:35;;;;;;;;;;;18.40;92.80;;;;;;7336734;19;109468;-66
2023/06/16 05:25:02;;;;;;;;;;;18.40;92.60;;;;;;7336225;19;111029;-66
2023/06/16 05:27:29;;;;;;;;;;;18.50;92.40;;;;;;7342704;19;110000;-66
2023/06/16 05:29:56;;;;;;;;;;;18.60;92.60;;;;;;7337566;19;110297;-66
2023/06/16 05:32:26;;;;;;;;;;;18.60;92.00;;;;;;7338824;19;111124;-66
2023/06/16 05:34:54;;;;;;;;;;;18.70;91.90;;;;;;7334973;19;110644;-66
2023/06/16 05:37:22;;;;;;;;;;;18.80;91.90;;;;;;7338543;19;110354;-66
2023/06/16 05:39:51;;;;;;;;;;;18.80;91.60;;;;;;7340260;19;109745;-66
2023/06/16 05:42:19;;;;;;;;;;;19.00;91.60;;;;;;7339191;19;109375;-66
2023/06/16 05:44:46;;;;;;;;;;;19.10;91.30;;;;;;7334578;19;108983;-66
2023/06/16 05:47:13;;;;;;;;;;;19.20;91.20;;;;;;7340533;19;109493;-61
2023/06/16 05:49:40;;;;;;;;;;;19.30;90.90;;;;;;7338420;19;109308;-62
2023/06/16 05:52:07;;;;;;;;;;;19.40;90.70;;;;;;7339334;19;108837;-61
2023/06/16 05:54:37;;;;;;;;;;;19.50;90.60;;;;;;7339084;19;110941;-61
2023/06/16 05:57:06;;;;;;;;;;;19.70;90.50;;;;;;7336013;19;109095;-62
2023/06/16 05:59:34;;;;;;;;;;;19.70;90.30;;;;;;7338330;19;109476;-62
2023/06/16 06:02:01;;;;;;;;;;;19.90;90.30;;;;;;7338031;19;109617;-61
2023/06/16 06:04:30;;;;;;;;;;;20.10;90.20;;;;;;7337209;19;110106;-61
2023/06/16 06:06:58;;;;;;;;;;;20.30;90.20;;;;;;7334468;19;108986;-61
2023/06/16 06:09:25;;;;;;;;;;;20.40;89.60;;;;;;7343395;19;109095;-62
2023/06/16 06:11:52;;;;;;;;;;;20.60;88.90;;;;;;7339169;19;110249;-62
2023/06/16 06:14:19;;;;;;;;;;;20.70;89.00;;;;;;7337269;19;109672;-61
2023/06/16 06:16:46;;;;;;;;;;;20.80;88.60;;;;;;7338469;19;108300;-61
2023/06/16 06:19:16;;;;;;;;;;;20.90;88.00;;;;;;7336942;19;108772;-61
2023/06/16 06:21:45;;;;;;;;;;;21.00;87.80;;;;;;7339380;19;109396;-62
2023/06/16 06:24:14;;;;;;;;;;;21.10;87.50;;;;;;7340304;19;112264;-61
2023/06/16 06:26:43;;;;;;;;;;;21.20;88.40;;;;;;7336798;19;109147;-61
2023/06/16 06:29:10;;;;;;;;;;;21.30;87.30;;;;;;7336969;19;110213;-61
2023/06/16 06:31:37;;;;;;;;;;;21.40;85.80;;;;;;7343011;19;109020;-61
2023/06/16 06:34:04;;;;;;;;;;;21.50;84.70;;;;;;7336307;19;109472;-61
2023/06/16 06:36:33;;;;;;;;;;;21.60;85.30;;;;;;7338211;19;109106;-62
2023/06/16 06:39:00;;;;;;;;;;;21.60;84.70;;;;;;7337520;19;108815;-61
2023/06/16 06:41:28;;;;;;;;;;;21.80;86.30;;;;;;7336067;19;109968;-62
2023/06/16 06:43:55;;;;;;;;;;;21.90;84.60;;;;;;7338433;19;108440;-62
2023/06/16 06:46:22;;;;;;;;;;;22.00;83.80;;;;;;7337275;19;109013;-61
2023/06/16 06:48:49;;;;;;;;;;;22.10;82.00;;;;;;7337083;19;109452;-61
2023/06/16 06:51:16;;;;;;;;;;;22.10;81.70;;;;;;7338307;19;108731;-61
2023/06/16 06:53:43;;;;;;;;;;;22.30;82.00;;;;;;7342672;19;109456;-62
2023/06/16 06:56:10;;;;;;;;;;;22.40;80.90;;;;;;7335621;19;109687;-62
2023/06/16 06:58:37;;;;;;;;;;;22.50;80.70;;;;;;7337579;19;109931;-62
2023/06/16 07:01:05;;;;;;;;;;;22.60;83.20;;;;;;7334994;19;109507;-61
2023/06/16 07:03:32;;;;;;;;;;;22.60;81.70;;;;;;7337660;19;108832;-62
2023/06/16 07:05:59;;;;;;;;;;;22.80;81.50;;;;;;7333114;19;109420;-61
2023/06/16 07:08:26;;;;;;;;;;;22.80;81.40;;;;;;7337121;19;109841;-61
2023/06/16 07:10:53;;;;;;;;;;;23.00;81.00;;;;;;7335144;19;108771;-61
2023/06/16 07:13:21;;;;;;;;;;;23.00;79.60;;;;;;7332679;19;110442;-61
2023/06/16 07:15:48;;;;;;;;;;;23.10;80.10;;;;;;7339230;19;112465;-61
2023/06/16 07:18:15;;;;;;;;;;;23.10;78.90;;;;;;7332712;19;109443;-61
2023/06/16 07:20:42;;;;;;;;;;;23.20;79.50;;;;;;7330494;19;110849;-61
2023/06/16 07:23:09;;;;;;;;;;;23.20;77.20;;;;;;7332887;19;108829;-62
2023/06/16 07:25:36;;;;;;;;;;;23.30;76.80;;;;;;7335730;19;110112;-62
2023/06/16 07:28:04;;;;;;;;;;;23.40;77.70;;;;;;7335677;19;109963;-62
2023/06/16 07:30:31;;;;;;;;;;;23.40;76.20;;;;;;7335187;19;110491;-61
2023/06/16 07:32:58;;;;;;;;;;;23.50;76.40;;;;;;7332270;19;108933;-62
2023/06/16 07:35:25;;;;;;;;;;;23.60;76.70;;;;;;7336656;19;110297;-62
2023/06/16 07:37:52;;;;;;;;;;;23.70;75.90;;;;;;7336884;19;108480;-62
2023/06/16 07:40:19;;;;;;;;;;;23.80;76.40;;;;;;7331496;19;109177;-61
2023/06/16 07:42:47;;;;;;;;;;;23.90;74.70;;;;;;7326629;19;109694;-62
2023/06/16 07:45:17;;;;;;;;;;;23.90;75.70;;;;;;7332108;19;108849;-61
2023/06/16 07:47:48;;;;;;;;;;;24.00;75.30;;;;;;7331876;19;109606;-62
2023/06/16 07:50:15;;;;;;;;;;;24.10;76.10;;;;;;7334793;19;108900;-62
2023/06/16 07:52:43;;;;;;;;;;;24.20;75.80;;;;;;7333642;19;108633;-62
2023/06/16 07:55:10;;;;;;;;;;;24.30;73.90;;;;;;7331127;19;109082;-61
2023/06/16 07:57:38;;;;;;;;;;;24.30;74.80;;;;;;7340175;19;108943;-61
2023/06/16 08:00:08;;;;;;;;;;;24.30;74.90;;;;;;7329231;19;110390;-62
2023/06/16 08:02:36;;;;;;;;;;;24.30;73.20;;;;;;7334463;19;109549;-61
2023/06/16 08:05:06;;;;;;;;;;;24.40;72.50;;;;;;7335081;19;109099;-61
2023/06/16 08:07:33;;;;;;;;;;;24.50;74.70;;;;;;7332327;19;110459;-61
2023/06/16 08:10:00;;;;;;;;;;;24.60;74.90;;;;;;7334922;19;109100;-61
2023/06/16 08:12:28;;;;;;;;;;;24.80;74.40;;;;;;7334772;19;108620;-61
2023/06/16 08:14:55;;;;;;;;;;;24.90;74.50;;;;;;7333031;19;109163;-61
2023/06/16 08:17:22;;;;;;;;;;;24.90;71.60;;;;;;7334766;19;108428;-61
2023/06/16 08:19:49;;;;;;;;;;;25.00;71.70;;;;;;7338077;19;109419;-61
2023/06/16 08:22:17;;;;;;;;;;;25.10;71.10;;;;;;7328530;19;109654;-62
2023/06/16 08:24:44;;;;;;;;;;;25.10;70.70;;;;;;7333575;19;108942;-62
2023/06/16 08:27:11;;;;;;;;;;;25.20;72.40;;;;;;7330042;19;110550;-63
2023/06/16 08:29:39;;;;;;;;;;;25.40;69.30;;;;;;7335085;19;109170;-61
2023/06/16 08:32:07;;;;;;;;;;;25.40;70.10;;;;;;7332479;19;108703;-61
2023/06/16 08:34:34;;;;;;;;;;;25.40;70.50;;;;;;7334087;19;110268;-62
2023/06/16 08:37:02;;;;;;;;;;;25.40;70.10;;;;;;7333972;19;109082;-61
2023/06/16 08:39:46;;;;;;;;;;;25.50;70.00;;;;;;7331229;19;109272;-62
2023/06/16 08:42:13;;;;;;;;;;;25.70;71.20;;;;;;7337757;19;109098;-61
2023/06/16 08:44:40;;;;;;;;;;;25.80;70.40;;;;;;7332639;19;109752;-62
2023/06/16 08:47:08;;;;;;;;;;;25.90;68.00;;;;;;7330718;19;109177;-61
2023/06/16 08:49:35;;;;;;;;;;;25.90;67.50;;;;;;7332634;19;108384;-61
2023/06/16 08:52:03;;;;;;;;;;;26.00;68.50;;;;;;7331346;19;109001;-61
2023/06/16 08:54:32;;;;;;;;;;;26.10;68.10;;;;;;7340505;19;109127;-61
2023/06/16 08:57:01;;;;;;;;;;;26.20;68.50;;;;;;7340711;19;110191;-61
2023/06/16 08:59:30;;;;;;;;;;;26.30;68.70;;;;;;7336091;19;110671;-61
2023/06/16 09:01:59;;;;;;;;;;;26.30;65.70;;;;;;7340091;19;109715;-61
2023/06/16 09:04:28;;;;;;;;;;;26.20;66.60;;;;;;7344596;19;109289;-61
2023/06/16 09:06:56;;;;;;;;;;;26.30;66.00;;;;;;7333984;19;109957;-61
2023/06/16 09:09:23;;;;;;;;;;;26.40;65.60;;;;;;7339897;19;109170;-61
2023/06/16 09:12:09;;;;;;;;;;;26.40;64.10;;;;;;7339734;19;110077;-61
2023/06/16 09:14:42;;;;;;;;;;;26.30;64.00;;;;;;7340800;19;109407;-61
2023/06/16 09:17:09;;;;;;;;;;;26.30;66.10;;;;;;7338757;19;108668;-61
2023/06/16 09:19:51;;;;;;;;;;;26.40;61.60;;;;;;7337457;19;110341;-61
2023/06/16 09:22:18;;;;;;;;;;;26.40;62.30;;;;;;7340232;19;109170;-61
2023/06/16 09:25:04;;;;;;;;;;;26.40;63.40;;;;;;7337835;19;109529;-62
2023/06/16 09:27:43;;;;;;;;;;;26.50;66.60;;;;;;7347612;19;108923;-62
2023/06/16 09:30:14;;;;;;;;;;;26.70;64.40;;;;;;7337598;19;108813;-61
2023/06/16 09:32:42;;;;;;;;;;;26.80;63.90;;;;;;7339341;19;109514;-61
2023/06/16 09:35:22;;;;;;;;;;;26.90;64.10;;;;;;7336483;19;110422;-63
2023/06/16 09:37:50;;;;;;;;;;;26.90;62.70;;;;;;7340868;19;109580;-62
2023/06/16 09:40:19;;;;;;;;;;;26.90;62.00;;;;;;7337473;19;110178;-61
2023/06/16 09:42:48;;;;;;;;;;;26.90;64.00;;;;;;7337339;19;109270;-61
2023/06/16 09:45:16;;;;;;;;;;;27.10;64.00;;;;;;7336964;19;108452;-61
2023/06/16 09:47:47;;;;;;;;;;;27.30;64.00;;;;;;7342283;19;111639;-61
2023/06/16 09:50:15;;;;;;;;;;;27.30;64.90;;;;;;7337613;19;109273;-61
2023/06/16 09:52:45;;;;;;;;;;;27.40;63.00;;;;;;7338553;19;108825;-60
2023/06/16 09:55:13;;;;;;;;;;;27.50;63.50;;;;;;7336641;19;109154;-61
2023/06/16 09:57:42;;;;;;;;;;;27.60;62.50;;;;;;7337591;19;109867;-61
2023/06/16 10:00:13;;;;;;;;;;;27.60;62.80;;;;;;7336740;19;109919;-62
2023/06/16 10:02:41;;;;;;;;;;;27.70;60.90;;;;;;7337247;19;109413;-61
2023/06/16 10:05:10;;;;;;;;;;;27.80;61.20;;;;;;7334127;19;111378;-61
2023/06/16 10:07:37;;;;;;;;;;;27.80;62.10;;;;;;7337682;19;108970;-61
2023/06/16 10:10:08;;;;;;;;;;;28.00;64.00;;;;;;7343512;19;109255;-61
2023/06/16 10:12:36;;;;;;;;;;;28.20;64.20;;;;;;7339782;19;109370;-64
2023/06/16 10:15:03;;;;;;;;;;;28.40;62.00;;;;;;7335122;19;112543;-62
2023/06/16 10:17:31;;;;;;;;;;;28.50;62.60;;;;;;7337430;19;109789;-61
2023/06/16 10:19:58;;;;;;;;;;;28.60;61.50;;;;;;7336306;19;114093;-61
2023/06/16 10:22:25;;;;;;;;;;;28.50;61.30;;;;;;7334691;19;109463;-62
2023/06/16 10:24:52;;;;;;;;;;;28.50;62.10;;;;;;7337305;19;109079;-62
2023/06/16 10:27:23;;;;;;;;;;;28.70;62.60;;;;;;7335250;19;112438;-60
2023/06/16 10:29:51;;;;;;;;;;;28.90;62.30;;;;;;7335165;19;109888;-60
2023/06/16 10:32:18;;;;;;;;;;;29.00;60.20;;;;;;7343569;19;109658;-60
2023/06/16 10:34:47;;;;;;;;;;;28.70;59.90;;;;;;7333675;19;110861;-59
2023/06/16 10:37:15;;;;;;;;;;;28.50;58.30;;;;;;7337213;19;108878;-61
2023/06/16 10:39:43;;;;;;;;;;;28.40;58.20;;;;;;7335511;19;110465;-60
2023/06/16 10:42:14;;;;;;;;;;;28.20;58.20;;;;;;7337060;19;109145;-61
2023/06/16 10:44:44;;;;;;;;;;;28.30;58.00;;;;;;7336523;19;108761;-62
2023/06/16 10:47:11;;;;;;;;;;;28.30;58.00;;;;;;7338030;19;108585;-60
2023/06/16 10:49:50;;;;;;;;;;;28.40;57.90;;;;;;7335630;19;109228;-60
2023/06/16 10:52:18;;;;;;;;;;;28.60;58.40;;;;;;7331759;19;110171;-61
2023/06/16 10:54:48;;;;;;;;;;;28.70;58.80;;;;;;7339548;19;109046;-66
2023/06/16 10:57:15;;;;;;;;;;;28.60;56.40;;;;;;7336540;19;108532;-62
2023/06/16 10:59:51;;;;;;;;;;;28.50;56.50;;;;;;7332467;19;110279;-61
2023/06/16 11:02:21;;;;;;;;;;;28.40;56.90;;;;;;7334844;19;109310;-60
2023/06/16 11:05:07;;;;;;;;;;;28.40;57.00;;;;;;7334794;19;109372;-61
2023/06/16 11:07:39;;;;;;;;;;;28.50;57.50;;;;;;7336349;19;109801;-61
2023/06/16 11:10:07;;;;;;;;;;;28.60;55.80;;;;;;7330421;19;109719;-65
2023/06/16 11:12:34;;;;;;;;;;;28.50;56.20;;;;;;7337186;19;109284;-61
2023/06/16 11:15:04;;;;;;;;;;;28.50;57.20;;;;;;7331020;19;109055;-62
2023/06/16 11:17:32;;;;;;;;;;;28.60;55.50;;;;;;7342540;19;109103;-62
2023/06/16 11:20:01;;;;;;;;;;;28.80;55.00;;;;;;7335588;19;109805;-61
2023/06/16 11:22:31;;;;;;;;;;;28.90;55.50;;;;;;7335930;19;110062;-62
2023/06/16 11:24:59;;;;;;;;;;;29.10;55.70;;;;;;7332379;19;108767;-63
2023/06/16 11:27:26;;;;;;;;;;;29.30;57.00;;;;;;7337749;19;108705;-62
2023/06/16 11:29:54;;;;;;;;;;;29.50;52.90;;;;;;7330855;19;111497;-62
2023/06/16 11:32:24;;;;;;;;;;;29.40;52.60;;;;;;7333625;19;108844;-65
2023/06/16 11:34:53;;;;;;;;;;;29.50;50.60;;;;;;7332387;19;111585;-62
2023/06/16 11:37:21;;;;;;;;;;;29.60;54.50;;;;;;7336725;19;109343;-61
2023/06/16 11:39:48;;;;;;;;;;;29.90;55.10;;;;;;7338591;19;108980;-62
2023/06/16 11:42:16;;;;;;;;;;;30.10;54.40;;;;;;7335671;19;109491;-61
2023/06/16 11:44:44;;;;;;;;;;;30.10;55.00;;;;;;7332774;19;109448;-62
2023/06/16 11:47:11;;;;;;;;;;;30.30;55.00;;;;;;7337775;19;109266;-61
2023/06/16 11:49:38;;;;;;;;;;;30.40;55.90;;;;;;7334072;19;109254;-61
2023/06/16 11:52:06;;;;;;;;;;;30.60;55.70;;;;;;7332593;19;108949;-61
2023/06/16 11:54:34;;;;;;;;;;;30.80;55.50;;;;;;7333579;19;110264;-63
2023/06/16 11:57:02;;;;;;;;;;;31.00;55.00;;;;;;7333713;19;109265;-64
2023/06/16 11:59:31;;;;;;;;;;;31.10;53.60;;;;;;7340487;19;108627;-63
2023/06/16 12:01:58;;;;;;;;;;;31.10;53.90;;;;;;7332349;19;109762;-62
2023/06/16 12:04:26;;;;;;;;;;;31.20;54.80;;;;;;7332896;19;108811;-62
2023/06/16 12:06:54;;;;;;;;;;;31.20;53.10;;;;;;7334904;19;112677;-63
2023/06/16 12:09:21;;;;;;;;;;;31.20;53.50;;;;;;7333426;19;110113;-61
2023/06/16 12:11:48;;;;;;;;;;;31.20;52.30;;;;;;7334330;19;108991;-61
2023/06/16 12:14:20;;;;;;;;;;;31.10;52.80;;;;;;7335769;19;111432;-61
2023/06/16 12:16:48;;;;;;;;;;;31.00;52.40;;;;;;7332784;19;109805;-60
2023/06/16 12:19:21;;;;;;;;;;;30.80;52.80;;;;;;7328077;19;109739;-61
2023/06/16 12:21:51;;;;;;;;;;;30.90;53.40;;;;;;7336005;19;109609;-61
2023/06/16 12:24:18;;;;;;;;;;;31.00;54.40;;;;;;7335415;19;109669;-62
2023/06/16 12:26:46;;;;;;;;;;;31.10;53.00;;;;;;7332144;19;108866;-61
2023/06/16 12:29:14;;;;;;;;;;;31.20;52.50;;;;;;7333823;19;109190;-61
2023/06/16 12:32:01;;;;;;;;;;;31.20;52.50;;;;;;7332556;19;109662;-61
2023/06/16 12:34:33;;;;;;;;;;;31.30;52.80;;;;;;7333887;19;108642;-61
2023/06/16 12:37:06;;;;;;;;;;;31.10;50.60;;;;;;7332462;19;109119;-61
2023/06/16 12:39:33;;;;;;;;;;;30.80;51.50;;;;;;7332295;19;111940;-61
2023/06/16 12:42:05;;;;;;;;;;;30.70;52.80;;;;;;7333799;19;110112;-61
2023/06/16 12:44:49;;;;;;;;;;;30.50;52.10;;;;;;7338765;19;109101;-62
2023/06/16 12:47:17;;;;;;;;;;;30.40;51.20;;;;;;7331609;19;108649;-61
2023/06/16 12:49:44;;;;;;;;;;;30.30;52.10;;;;;;7335143;19;110119;-63
2023/06/16 12:52:12;;;;;;;;;;;30.20;52.70;;;;;;7330280;19;109100;-62
2023/06/16 12:54:40;;;;;;;;;;;30.20;53.10;;;;;;7333053;19;109571;-61
2023/06/16 12:57:08;;;;;;;;;;;30.20;53.30;;;;;;7330965;19;110248;-62
2023/06/16 12:59:37;;;;;;;;;;;30.10;52.90;;;;;;7334362;19;109906;-62
2023/06/16 13:02:05;;;;;;;;;;;29.90;51.20;;;;;;7331938;19;111448;-61
2023/06/16 13:04:32;;;;;;;;;;;29.90;51.80;;;;;;7333422;19;111004;-69
2023/06/16 13:07:00;;;;;;;;;;;30.00;52.80;;;;;;7337403;19;109512;-71
2023/06/16 13:09:27;;;;;;;;;;;30.20;54.20;;;;;;7331010;19;111759;-65
2023/06/16 13:11:55;;;;;;;;;;;30.50;53.70;;;;;;7329591;19;110140;-71
2023/06/16 13:14:23;;;;;;;;;;;30.70;53.60;;;;;;7332137;19;109564;-70
2023/06/16 13:16:51;;;;;;;;;;;30.90;52.30;;;;;;7329808;19;110023;-63
2023/06/16 13:19:18;;;;;;;;;;;31.00;50.20;;;;;;7334980;19;110202;-71
2023/06/16 13:21:45;;;;;;;;;;;31.00;51.90;;;;;;7329905;19;109144;-68
2023/06/16 13:24:12;;;;;;;;;;;31.20;51.00;;;;;;7332613;19;110434;-65
2023/06/16 13:26:40;;;;;;;;;;;31.30;51.70;;;;;;7330735;19;108665;-69
2023/06/16 13:29:08;;;;;;;;;;;31.60;50.10;;;;;;7336330;19;109988;-68
2023/06/16 13:31:35;;;;;;;;;;;31.60;48.90;;;;;;7326940;19;110229;-65
2023/06/16 13:34:02;;;;;;;;;;;31.70;49.20;;;;;;7331226;19;109954;-64
2023/06/16 13:36:30;;;;;;;;;;;31.70;50.40;;;;;;7327734;19;109715;-71
2023/06/16 13:38:57;;;;;;;;;;;31.70;48.60;;;;;;7329650;19;108839;-65
2023/06/16 13:41:27;;;;;;;;;;;31.70;50.20;;;;;;7333910;19;110782;-74
2023/06/16 13:43:54;;;;;;;;;;;31.70;49.20;;;;;;7336784;19;109798;-69
2023/06/16 13:46:21;;;;;;;;;;;31.80;49.60;;;;;;7337468;19;110146;-71
2023/06/16 13:48:48;;;;;;;;;;;32.00;50.30;;;;;;7338710;19;108618;-68
2023/06/16 13:51:16;;;;;;;;;;;32.20;50.00;;;;;;7340956;19;110449;-61
2023/06/16 13:53:43;;;;;;;;;;;32.40;48.90;;;;;;7333664;19;109274;-62
2023/06/16 13:56:13;;;;;;;;;;;32.30;48.90;;;;;;7336404;19;110320;-61
2023/06/16 13:58:40;;;;;;;;;;;32.30;49.80;;;;;;7334926;19;110437;-62
2023/06/16 14:01:07;;;;;;;;;;;32.30;48.90;;;;;;7337900;19;110043;-61
2023/06/16 14:03:35;;;;;;;;;;;32.40;50.10;;;;;;7338443;19;110894;-62
2023/06/16 14:06:02;;;;;;;;;;;32.40;48.60;;;;;;7339627;19;109008;-62
2023/06/16 14:08:29;;;;;;;;;;;32.50;48.70;;;;;;7338353;19;109191;-61
2023/06/16 14:10:56;;;;;;;;;;;32.50;48.20;;;;;;7342732;19;109116;-62
2023/06/16 14:13:23;;;;;;;;;;;32.70;48.60;;;;;;7339250;19;109444;-63
2023/06/16 14:15:51;;;;;;;;;;;32.80;48.50;;;;;;7332765;19;111466;-62
2023/06/16 14:18:20;;;;;;;;;;;32.90;48.80;;;;;;7335437;19;110216;-62
2023/06/16 14:20:48;;;;;;;;;;;33.00;46.70;;;;;;7332890;19;110278;-62
2023/06/16 14:23:15;;;;;;;;;;;33.20;49.40;;;;;;7336690;19;109822;-62
2023/06/16 14:25:44;;;;;;;;;;;33.50;49.00;;;;;;7335044;19;108735;-61